Time;durP1;ratioP1;P1;durP2;ratioP2;P2;SDS_P1;SDS_P2;PMS_P1;PMS_P2;Temp;Humidity;BMP_temperature;BMP_pressure;BME280_temperature;BME280_humidity;BME280_pressure;Samples;Min_cycle;Max_cycle;Signal;HPM_P1;HPM_P2
2021/04/09 00:01:56;;;;;;;72.82;32.85;;;;;;;29.73;61.55;100934.59;4808008;29;69093;-36
2021/04/09 00:04:26;;;;;;;64.72;32.45;;;;;;;29.88;60.10;100937.06;4792018;29;65995;-36
2021/04/09 00:06:56;;;;;;;65.80;31.63;;;;;;;29.93;60.33;100933.72;4799430;29;69954;-35
2021/04/09 00:09:25;;;;;;;62.00;32.67;;;;;;;30.01;60.25;100936.19;4793348;29;65794;-33
2021/04/09 00:11:56;;;;;;;64.80;32.05;;;;;;;29.95;60.56;100926.19;4789971;29;69035;-33
2021/04/09 00:14:25;;;;;;;64.15;32.80;;;;;;;30.10;60.70;100947.59;4803132;29;66126;-33
2021/04/09 00:16:55;;;;;;;56.25;32.15;;;;;;;30.08;60.03;100930.75;4804066;29;69836;-34
2021/04/09 00:19:26;;;;;;;57.42;33.13;;;;;;;30.28;60.08;100958.56;4792782;29;66387;-33
2021/04/09 00:21:56;;;;;;;61.22;33.38;;;;;;;30.35;59.55;100955.84;4821600;29;69981;-34
2021/04/09 00:24:26;;;;;;;61.08;32.80;;;;;;;30.33;60.22;100960.66;4805534;29;66226;-34
2021/04/09 00:26:58;;;;;;;62.90;32.65;;;;;;;30.44;60.51;100968.09;4804795;29;69830;-34
2021/04/09 00:29:28;;;;;;;58.78;32.45;;;;;;;30.42;61.57;100979.16;4805366;29;66123;-34
2021/04/09 00:31:57;;;;;;;53.88;30.65;;;;;;;30.50;60.98;100978.06;4804758;29;69338;-34
2021/04/09 00:34:27;;;;;;;54.33;31.20;;;;;;;30.53;60.39;100983.03;4801503;29;65383;-33
2021/04/09 00:36:56;;;;;;;54.50;31.73;;;;;;;30.55;60.25;100975.53;4800884;29;69976;-33
2021/04/09 00:39:26;;;;;;;50.40;30.92;;;;;;;30.55;59.95;100994.50;4796426;29;66137;-33
2021/04/09 00:41:58;;;;;;;51.90;29.83;;;;;;;30.47;59.53;100973.91;4800207;29;70112;-32
2021/04/09 00:44:28;;;;;;;53.80;29.35;;;;;;;30.58;59.69;100996.75;4790941;29;65355;-33
2021/04/09 00:46:57;;;;;;;55.85;29.63;;;;;;;30.61;59.37;100999.03;4800797;29;69254;-33
2021/04/09 00:49:27;;;;;;;45.85;28.35;;;;;;;30.62;59.44;100998.00;4799293;29;66767;-33
2021/04/09 00:51:58;;;;;;;44.45;28.63;;;;;;;30.63;58.82;101010.47;4793363;29;69349;-33
2021/04/09 00:54:27;;;;;;;40.58;27.48;;;;;;;30.62;59.18;101003.41;4804369;29;66220;-33
2021/04/09 00:57:00;;;;;;;46.75;28.88;;;;;;;30.64;58.70;101012.13;4803538;29;70460;-33
2021/04/09 00:59:30;;;;;;;39.00;27.60;;;;;;;30.63;58.92;101015.91;4801078;29;66035;-34
2021/04/09 01:02:00;;;;;;;47.05;28.48;;;;;;;30.69;58.77;101025.03;4805062;29;70121;-33
2021/04/09 01:04:33;;;;;;;47.83;28.27;;;;;;;30.71;58.68;101034.59;4795058;29;65933;-34
2021/04/09 01:07:04;;;;;;;40.20;27.98;;;;;;;30.75;58.24;101034.16;4790674;29;68313;-34
2021/04/09 01:09:37;;;;;;;44.83;26.55;;;;;;;30.72;58.39;101036.25;4801353;29;66267;-34
2021/04/09 01:12:07;;;;;;;44.00;28.25;;;;;;;30.77;58.53;101042.91;4793710;29;70029;-34
2021/04/09 01:14:37;;;;;;;42.55;27.02;;;;;;;30.76;58.17;101043.94;4792678;29;65985;-34
2021/04/09 01:17:39;;;;;;;43.42;26.45;;;;;;;30.73;58.12;101043.34;4789559;29;69850;-36
2021/04/09 01:20:21;;;;;;;42.05;26.70;;;;;;;30.79;57.71;101048.97;4801549;29;66294;-34
2021/04/09 01:23:02;;;;;;;39.67;26.02;;;;;;;30.79;58.48;101052.50;4789137;29;68247;-33
2021/04/09 01:25:58;;;;;;;37.35;27.02;;;;;;;30.80;57.91;101065.00;4800290;29;66970;-34
2021/04/09 01:28:35;;;;;;;42.58;26.63;;;;;;;30.84;57.81;101059.97;4798556;29;70044;-34
2021/04/09 01:31:37;;;;;;;45.85;25.98;;;;;;;30.85;57.92;101067.09;4790310;29;66013;-33
2021/04/09 01:34:08;;;;;;;41.05;25.17;;;;;;;30.88;57.67;101067.47;4796924;29;68932;-33
2021/04/09 01:36:42;;;;;;;40.38;25.52;;;;;;;30.89;57.47;101073.72;4804881;29;66096;-34
2021/04/09 01:39:23;;;;;;;42.38;26.80;;;;;;;30.62;57.56;101024.22;4807067;29;70247;-33
2021/04/09 01:41:55;;;;;;;34.67;26.30;;;;;;;30.98;57.41;101082.41;4791601;29;66301;-33
2021/04/09 01:44:30;;;;;;;39.08;24.58;;;;;;;30.88;57.20;101061.22;4797327;29;70096;-33
2021/04/09 01:47:01;;;;;;;41.17;25.17;;;;;;;30.93;57.50;101078.50;4794804;29;65266;-33
2021/04/09 01:49:33;;;;;;;41.05;25.02;;;;;;;30.87;56.85;101057.69;4806054;29;69793;-33
2021/04/09 01:52:10;;;;;;;33.30;23.98;;;;;;;31.00;56.76;101075.75;4804790;29;66299;-33
2021/04/09 01:54:52;;;;;;;34.83;24.02;;;;;;;30.97;57.19;101070.75;4802265;29;69515;-33
2021/04/09 01:57:25;;;;;;;34.28;24.80;;;;;;;31.12;56.73;101084.88;4798701;29;65900;-33
2021/04/09 01:59:57;;;;;;;37.55;24.98;;;;;;;31.13;56.95;101086.50;4817115;29;69791;-33
2021/04/09 02:02:27;;;;;;;;;;;;;;;31.03;57.11;101099.69;4791779;29;65508;-33
2021/04/09 02:04:57;;;;;;;38.80;24.70;;;;;;;31.16;56.82;101096.91;4804754;29;69839;-33
2021/04/09 02:07:27;;;;;;;32.15;22.80;;;;;;;31.16;56.14;101086.06;4799506;29;65097;-34
2021/04/09 02:09:58;;;;;;;32.60;23.95;;;;;;;31.19;56.41;101089.41;4796673;29;70105;-33
2021/04/09 02:12:28;;;;;;;38.08;23.98;;;;;;;31.22;56.33;101092.50;4808635;29;65064;-34
2021/04/09 02:14:58;;;;;;;34.67;24.60;;;;;;;31.23;56.13;101075.22;4807950;29;70063;-34
2021/04/09 02:17:27;;;;;;;32.47;24.55;;;;;;;31.27;56.27;101078.31;4805969;29;66387;-34
2021/04/09 02:19:57;;;;;;;34.55;24.27;;;;;;;31.30;55.85;101075.16;4798174;29;70308;-33
2021/04/09 02:22:28;;;;;;;35.00;23.63;;;;;;;31.30;56.11;101075.97;4802470;29;68248;-32
2021/04/09 02:24:59;;;;;;;31.80;22.23;;;;;;;31.29;56.08;101068.91;4808093;29;70465;-33
2021/04/09 02:27:33;;;;;;;31.30;22.98;;;;;;;31.36;56.33;101079.72;4807223;29;66011;-33
2021/04/09 02:30:08;;;;;;;33.22;21.60;;;;;;;31.37;56.16;101081.38;4797877;29;71918;-32
2021/04/09 02:32:37;;;;;;;30.30;22.58;;;;;;;31.40;55.89;101080.97;4802922;29;66412;-34
2021/04/09 02:35:09;;;;;;;27.98;22.00;;;;;;;31.13;55.77;101037.75;4791122;29;70013;-34
2021/04/09 02:37:46;;;;;;;29.92;21.92;;;;;;;31.43;55.93;101080.53;4805668;29;66126;-32
2021/04/09 02:40:22;;;;;;;36.83;23.20;;;;;;;31.31;56.04;101060.53;4807479;29;70002;-34
2021/04/09 02:42:53;;;;;;;26.58;21.80;;;;;;;31.50;55.52;101085.88;4790941;29;65225;-34
2021/04/09 02:45:24;;;;;;;27.77;21.65;;;;;;;31.53;55.41;101078.13;4801440;29;69866;-33
2021/04/09 02:47:56;;;;;;;;;;;;;;;31.45;55.74;101083.81;4796367;29;66876;-34
2021/04/09 02:50:40;;;;;;;25.80;21.55;;;;;;;31.61;54.94;101083.28;4804045;29;70235;-33
2021/04/09 02:53:37;;;;;;;26.00;20.70;;;;;;;31.48;54.95;101061.72;4803224;29;66505;-33
2021/04/09 02:56:13;;;;;;;23.50;19.17;;;;;;;31.65;54.70;101075.56;4807708;29;70382;-34
2021/04/09 02:59:01;;;;;;;29.30;20.55;;;;;;;31.72;55.23;101083.63;4804397;29;65891;-33
2021/04/09 03:01:32;;;;;;;22.40;19.50;;;;;;;31.75;55.07;101077.75;4806058;29;70212;-33
2021/04/09 03:04:30;;;;;;;24.40;19.13;;;;;;;31.81;55.03;101071.44;4792999;29;66604;-34
2021/04/09 03:07:21;;;;;;;24.38;19.45;;;;;;;31.85;54.26;101069.97;4815346;29;70668;-33
2021/04/09 03:10:08;;;;;;;23.42;19.05;;;;;;;31.87;54.53;101065.13;4808115;29;66816;-33
2021/04/09 03:12:40;;;;;;;25.17;19.15;;;;;;;31.91;54.32;101068.25;4805887;29;69996;-33
2021/04/09 03:15:27;;;;;;;29.35;21.05;;;;;;;31.73;54.25;101031.91;4811087;29;65990;-33
2021/04/09 03:18:07;;;;;;;27.25;20.45;;;;;;;31.92;54.04;101059.91;4821684;29;69498;-34
2021/04/09 03:20:39;;;;;;;23.13;19.77;;;;;;;31.98;54.07;101060.88;4809739;29;66185;-34
2021/04/09 03:23:16;;;;;;;26.73;19.65;;;;;;;32.00;54.02;101048.75;4822241;29;69767;-33
2021/04/09 03:25:47;;;;;;;25.83;19.55;;;;;;;32.03;54.46;101051.03;4813415;29;67038;-33
2021/04/09 03:28:20;;;;;;;21.40;19.20;;;;;;;32.05;54.14;101051.63;4811645;29;70076;-33
2021/04/09 03:31:17;;;;;;;21.08;18.75;;;;;;;32.09;53.79;101052.00;4815017;29;66600;-33
2021/04/09 03:33:47;;;;;;;28.10;19.48;;;;;;;32.13;53.79;101045.09;4805422;29;69832;-33
2021/04/09 03:36:39;;;;;;;25.00;19.70;;;;;;;32.16;53.97;101051.97;4835553;29;65945;-33
2021/04/09 03:39:16;;;;;;;23.67;20.20;;;;;;;32.18;53.80;101049.81;4825291;29;69217;-33
2021/04/09 03:42:04;;;;;;;24.70;20.05;;;;;;;32.22;54.01;101045.63;4801545;29;66317;-33
2021/04/09 03:44:57;;;;;;;22.30;19.83;;;;;;;32.22;53.72;101026.63;4782493;29;70928;-34
2021/04/09 03:47:46;;;;;;;24.90;19.45;;;;;;;32.29;53.38;101027.38;4788460;29;65156;-33
2021/04/09 03:50:16;;;;;;;25.33;19.77;;;;;;;32.33;53.29;101025.88;4787820;29;69678;-34
2021/04/09 03:52:46;;;;;;;24.83;20.08;;;;;;;32.35;53.60;101015.63;4801350;29;65437;-33
2021/04/09 03:55:17;;;;;;;21.23;19.02;;;;;;;32.32;53.50;101007.94;4787951;29;70054;-34
2021/04/09 03:57:54;;;;;;;24.70;19.17;;;;;;;32.38;53.04;101007.00;4798062;29;66586;-33
2021/04/09 04:00:26;;;;;;;20.35;18.10;;;;;;;32.42;53.56;101004.66;4803697;29;70112;-33
2021/04/09 04:03:00;;;;;;;26.58;18.30;;;;;;;32.45;53.11;101007.75;4801747;29;66330;-33
2021/04/09 04:05:30;;;;;;;21.15;19.05;;;;;;;32.36;53.34;100981.97;4789844;29;70308;-33
2021/04/09 04:08:01;;;;;;;21.80;19.08;;;;;;;32.36;53.12;100973.81;4798920;29;66256;-34
2021/04/09 04:10:36;;;;;;;22.02;19.60;;;;;;;32.50;53.04;100993.53;4804518;29;70531;-35
2021/04/09 04:13:10;;;;;;;22.60;19.73;;;;;;;32.51;53.25;100992.47;4793941;29;67177;-34
2021/04/09 04:15:40;;;;;;;26.17;19.42;;;;;;;32.52;52.90;100985.16;4771582;29;70069;-34
2021/04/09 04:18:10;;;;;;;23.92;19.85;;;;;;;32.48;52.72;100984.78;4784518;29;66751;-34
2021/04/09 04:20:41;;;;;;;27.63;20.63;;;;;;;32.53;52.90;100984.09;4801532;29;69006;-34
2021/04/09 04:23:18;;;;;;;25.80;19.67;;;;;;;32.39;52.94;100957.06;4792708;29;65397;-33
2021/04/09 04:26:08;;;;;;;27.67;19.88;;;;;;;32.52;52.96;100980.56;4802432;29;70330;-33
2021/04/09 04:28:38;;;;;;;24.10;20.25;;;;;;;32.44;52.85;100951.78;4794303;29;66179;-33
2021/04/09 04:31:28;;;;;;;22.92;19.60;;;;;;;32.54;53.03;100964.88;4801124;29;69495;-33
2021/04/09 04:33:57;;;;;;;27.88;19.98;;;;;;;32.57;52.99;100971.69;4795515;29;66482;-36
2021/04/09 04:36:37;;;;;;;23.70;19.85;;;;;;;32.57;52.82;100949.97;4812288;29;70132;-34
2021/04/09 04:39:08;;;;;;;24.35;18.50;;;;;;;32.45;52.93;100929.00;4810818;29;66134;-34
2021/04/09 04:41:43;;;;;;;28.38;19.45;;;;;;;32.62;52.49;100944.69;4811633;29;69884;-33
2021/04/09 04:44:15;;;;;;;21.25;18.77;;;;;;;32.56;52.59;100923.88;4816148;29;65959;-35
2021/04/09 04:46:49;;;;;;;22.20;19.80;;;;;;;32.63;52.36;100930.06;4819175;29;69984;-34
2021/04/09 04:49:22;;;;;;;27.20;19.70;;;;;;;32.68;52.71;100922.03;4819792;29;65278;-34
2021/04/09 04:51:52;;;;;;;23.05;20.17;;;;;;;32.71;52.73;100924.31;4807094;29;69026;-33
2021/04/09 04:54:25;;;;;;;27.13;21.17;;;;;;;32.68;52.46;100911.16;4816218;29;66545;-35
2021/04/09 04:56:55;;;;;;;26.58;20.77;;;;;;;32.67;52.74;100912.22;4807770;29;70093;-33
2021/04/09 04:59:25;;;;;;;25.77;20.75;;;;;;;32.74;52.47;100918.41;4808190;29;65448;-33
2021/04/09 05:01:57;;;;;;;24.65;21.92;;;;;;;32.79;52.25;100920.41;4812206;29;70032;-35
2021/04/09 05:04:28;;;;;;;25.48;21.25;;;;;;;32.82;52.52;100912.66;4818966;29;66158;-34
2021/04/09 05:06:57;;;;;;;23.33;20.23;;;;;;;32.84;52.43;100923.25;4815329;29;69897;-34
2021/04/09 05:09:33;;;;;;;23.73;21.27;;;;;;;32.88;52.22;100921.75;4814830;29;65235;-34
2021/04/09 05:12:03;;;;;;;22.58;20.40;;;;;;;32.85;52.24;100917.59;4809482;29;69126;-34
2021/04/09 05:14:33;;;;;;;24.50;20.52;;;;;;;32.86;52.29;100905.66;4799040;29;65813;-33
2021/04/09 05:17:04;;;;;;;21.85;19.52;;;;;;;32.87;52.24;100918.19;4809141;29;70309;-34
2021/04/09 05:19:35;;;;;;;26.58;19.92;;;;;;;32.80;52.34;100906.59;4794056;29;66221;-35
2021/04/09 05:22:08;;;;;;;22.70;20.05;;;;;;;32.88;52.29;100925.28;4808630;29;69732;-33
2021/04/09 05:24:38;;;;;;;23.48;20.95;;;;;;;32.85;52.59;100909.47;4807955;29;65274;-34
2021/04/09 05:27:08;;;;;;;25.73;20.58;;;;;;;32.89;52.40;100894.34;4808637;29;69812;-34
2021/04/09 05:29:39;;;;;;;27.70;20.15;;;;;;;32.90;52.65;100890.56;4807704;29;65849;-33
2021/04/09 05:32:12;;;;;;;23.13;19.52;;;;;;;32.88;52.35;100881.81;4805122;29;70436;-33
2021/04/09 05:34:42;;;;;;;21.65;19.38;;;;;;;32.97;52.61;100885.00;4799764;29;65847;-34
2021/04/09 05:37:12;;;;;;;24.35;20.30;;;;;;;32.99;52.46;100884.75;4805551;29;70651;-34
2021/04/09 05:39:42;;;;;;;22.63;19.42;;;;;;;33.01;52.38;100869.09;4802605;29;65354;-34
2021/04/09 05:42:11;;;;;;;22.23;19.58;;;;;;;33.03;52.58;100866.97;4793315;29;69184;-33
2021/04/09 05:44:43;;;;;;;22.08;19.85;;;;;;;33.04;52.08;100861.31;4792489;29;66459;-33
2021/04/09 05:47:15;;;;;;;21.35;19.17;;;;;;;33.03;52.47;100847.94;4793442;29;69462;-33
2021/04/09 05:49:45;;;;;;;20.95;18.92;;;;;;;33.06;52.58;100837.44;4805535;29;66520;-34
2021/04/09 05:52:14;;;;;;;21.42;19.35;;;;;;;33.08;52.52;100823.63;4797435;29;70283;-34
2021/04/09 05:54:44;;;;;;;22.08;19.77;;;;;;;33.13;52.16;100821.84;4803235;29;66244;-33
2021/04/09 05:57:14;;;;;;;20.75;18.48;;;;;;;33.13;52.40;100823.75;4809749;29;69166;-33
2021/04/09 05:59:45;;;;;;;21.30;19.15;;;;;;;33.15;52.45;100827.03;4806542;29;66430;-34
2021/04/09 06:02:15;;;;;;;19.83;18.17;;;;;;;33.16;52.17;100817.81;4810440;29;69314;-34
2021/04/09 06:04:44;;;;;;;21.45;18.92;;;;;;;33.16;52.55;100796.09;4809929;29;66116;-34
2021/04/09 06:07:14;;;;;;;20.20;18.27;;;;;;;33.18;52.26;100793.94;4794757;29;69949;-34
2021/04/09 06:09:43;;;;;;;20.02;18.05;;;;;;;33.23;52.33;100785.88;4809469;29;66250;-34
2021/04/09 06:12:13;;;;;;;21.52;19.08;;;;;;;33.24;52.19;100787.56;4796546;29;69623;-34
2021/04/09 06:14:45;;;;;;;20.35;18.38;;;;;;;33.28;52.17;100788.72;4794939;29;66427;-34
2021/04/09 06:17:14;;;;;;;21.00;19.10;;;;;;;33.29;52.07;100790.41;4809012;29;69276;-33
2021/04/09 06:19:47;;;;;;;21.33;17.85;;;;;;;33.29;52.07;100784.97;4803512;29;65062;-33
2021/04/09 06:22:18;;;;;;;20.63;18.33;;;;;;;33.28;52.13;100777.84;4791846;29;70108;-33
2021/04/09 06:24:47;;;;;;;19.25;17.55;;;;;;;33.31;52.06;100761.06;4803175;29;65530;-33
2021/04/09 06:27:17;;;;;;;22.25;19.25;;;;;;;33.31;52.11;100744.75;4800348;29;68998;-33
2021/04/09 06:29:47;;;;;;;19.85;18.00;;;;;;;33.35;51.91;100756.81;4795723;29;66276;-33
2021/04/09 06:32:17;;;;;;;20.10;18.40;;;;;;;33.25;51.98;100745.72;4800472;29;69147;-33
2021/04/09 06:34:47;;;;;;;20.25;18.42;;;;;;;33.33;52.14;100760.84;4794067;29;65172;-33
2021/04/09 06:37:16;;;;;;;20.00;18.13;;;;;;;33.35;52.13;100762.25;4791238;29;70081;-33
2021/04/09 06:39:46;;;;;;;24.60;19.08;;;;;;;33.37;51.91;100760.09;4807278;29;66004;-33
2021/04/09 06:42:19;;;;;;;21.63;19.63;;;;;;;33.37;52.19;100765.53;4806436;29;69809;-33
2021/04/09 06:44:49;;;;;;;20.30;18.52;;;;;;;33.29;52.07;100771.38;4808890;29;66179;-33
2021/04/09 06:47:20;;;;;;;20.90;18.85;;;;;;;33.41;51.72;100763.19;4794042;29;69834;-33
2021/04/09 06:49:51;;;;;;;25.17;18.88;;;;;;;33.36;51.93;100758.44;4807002;29;66029;-33
2021/04/09 06:52:20;;;;;;;20.88;18.90;;;;;;;33.38;51.86;100740.00;4806328;29;69808;-33
2021/04/09 06:54:50;;;;;;;20.23;18.10;;;;;;;33.34;51.87;100727.94;4792931;29;65969;-33
2021/04/09 06:57:22;;;;;;;20.60;18.55;;;;;;;33.35;51.91;100740.50;4804900;29;69864;-33
2021/04/09 06:59:53;;;;;;;21.85;18.65;;;;;;;33.41;51.78;100727.00;4797945;29;65354;-33
2021/04/09 07:02:22;;;;;;;20.08;18.10;;;;;;;33.40;51.71;100725.34;4808712;29;69220;-34
2021/04/09 07:04:53;;;;;;;19.73;18.00;;;;;;;33.42;51.82;100728.66;4806304;29;67095;-33
2021/04/09 07:07:22;;;;;;;21.50;17.67;;;;;;;33.44;51.86;100729.25;4792792;29;69722;-33
2021/04/09 07:09:53;;;;;;;20.50;18.08;;;;;;;33.46;51.93;100724.38;4804764;29;65973;-33
2021/04/09 07:12:26;;;;;;;19.05;17.35;;;;;;;33.43;51.80;100713.97;4805463;29;70254;-33
2021/04/09 07:15:03;;;;;;;19.45;17.73;;;;;;;33.29;51.52;100684.38;4807148;29;66248;-33
2021/04/09 07:17:45;;;;;;;18.85;17.05;;;;;;;33.31;51.52;100693.09;4804057;29;70206;-33
2021/04/09 07:20:29;;;;;;;20.73;18.45;;;;;;;33.37;51.74;100697.56;4807345;29;65536;-33
2021/04/09 07:23:02;;;;;;;19.08;17.20;;;;;;;33.42;51.45;100687.88;4805036;29;69300;-33
2021/04/09 07:25:38;;;;;;;19.47;17.63;;;;;;;33.25;51.69;100675.03;4807226;29;65911;-33
2021/04/09 07:28:18;;;;;;;19.67;17.75;;;;;;;33.43;51.54;100711.25;4795980;29;70076;-32
2021/04/09 07:30:50;;;;;;;18.58;16.73;;;;;;;33.42;51.69;100696.03;4793492;29;66608;-33
2021/04/09 07:33:25;;;;;;;18.58;16.70;;;;;;;33.30;51.82;100682.47;4806659;29;69928;-34
2021/04/09 07:35:58;;;;;;;18.55;16.67;;;;;;;33.36;51.83;100687.75;4801645;29;65285;-33
2021/04/09 07:38:33;;;;;;;18.10;16.60;;;;;;;33.38;51.49;100693.78;4799243;29;70026;-34
2021/04/09 07:41:10;;;;;;;18.30;16.70;;;;;;;33.11;51.66;100649.19;4795465;29;65996;-32
2021/04/09 07:43:45;;;;;;;18.85;16.77;;;;;;;33.25;51.90;100668.78;4794669;29;69854;-34
2021/04/09 07:46:27;;;;;;;17.38;15.88;;;;;;;33.20;51.69;100672.22;4792087;29;65907;-34
2021/04/09 07:49:05;;;;;;;19.67;15.63;;;;;;;33.36;51.63;100682.31;4801151;29;70263;-33
2021/04/09 07:51:34;;;;;;;18.00;16.50;;;;;;;33.38;51.76;100674.75;4796744;29;65026;-34
2021/04/09 07:54:12;;;;;;;18.60;16.08;;;;;;;33.37;51.46;100673.09;4805177;29;70429;-33
2021/04/09 07:56:44;;;;;;;16.42;15.23;;;;;;;33.36;51.89;100676.06;4802542;29;66016;-33
2021/04/09 07:59:13;;;;;;;21.45;15.90;;;;;;;33.37;51.84;100672.25;4794489;29;70163;-34
2021/04/09 08:01:47;;;;;;;17.42;15.70;;;;;;;33.37;51.60;100677.72;4797573;29;65498;-33
2021/04/09 08:04:19;;;;;;;17.55;15.93;;;;;;;33.38;51.50;100671.22;4803706;29;69958;-33
2021/04/09 08:06:49;;;;;;;17.60;15.95;;;;;;;33.32;52.06;100662.13;4796424;29;65333;-33
2021/04/09 08:09:19;;;;;;;17.48;15.88;;;;;;;33.32;51.94;100664.00;4802250;29;69492;-32
2021/04/09 08:11:52;;;;;;;18.17;16.27;;;;;;;33.30;51.90;100664.25;4808265;29;65911;-32
2021/04/09 08:14:27;;;;;;;16.92;15.38;;;;;;;33.15;51.84;100632.19;4797900;29;69293;-33
2021/04/09 08:17:11;;;;;;;17.25;15.55;;;;;;;33.28;52.06;100647.38;4800486;29;66123;-34
2021/04/09 08:19:41;;;;;;;17.42;15.65;;;;;;;33.33;51.91;100642.03;4806229;29;70296;-33
2021/04/09 08:22:11;;;;;;;17.25;15.55;;;;;;;33.32;52.24;100651.25;4807096;29;66082;-33
2021/04/09 08:24:41;;;;;;;18.60;16.27;;;;;;;33.29;51.66;100640.03;4790855;29;69394;-33
2021/04/09 08:27:13;;;;;;;17.95;16.10;;;;;;;33.27;51.98;100634.84;4789972;29;65410;-33
2021/04/09 08:29:44;;;;;;;18.98;14.85;;;;;;;33.33;52.14;100631.16;4806386;29;70402;-34
2021/04/09 08:32:20;;;;;;;16.52;15.13;;;;;;;33.32;52.01;100629.50;4799493;29;65868;-34
2021/04/09 08:34:49;;;;;;;16.92;15.27;;;;;;;33.32;52.10;100629.50;4794399;29;70346;-34
2021/04/09 08:37:21;;;;;;;18.27;16.08;;;;;;;33.30;52.04;100623.50;4806686;29;66369;-33
2021/04/09 08:39:54;;;;;;;16.40;14.77;;;;;;;33.38;52.17;100641.31;4807732;29;69870;-33
2021/04/09 08:42:23;;;;;;;17.08;15.52;;;;;;;33.36;52.21;100644.25;4794302;29;65585;-33
2021/04/09 08:44:54;;;;;;;18.60;15.50;;;;;;;33.37;51.94;100645.91;4807593;29;69974;-33
2021/04/09 08:47:26;;;;;;;17.48;14.75;;;;;;;33.37;52.09;100651.34;4791647;29;66057;-33
2021/04/09 08:50:05;;;;;;;19.40;15.88;;;;;;;33.37;51.98;100648.63;4805978;29;69715;-35
2021/04/09 08:52:39;;;;;;;16.90;15.45;;;;;;;33.36;52.08;100646.97;4814675;29;65823;-34
2021/04/09 08:55:12;;;;;;;16.55;14.98;;;;;;;33.35;52.09;100639.91;4803985;29;70801;-33
2021/04/09 08:57:47;;;;;;;16.27;14.80;;;;;;;33.26;51.72;100627.75;4805709;29;66156;-33
2021/04/09 09:00:24;;;;;;;16.40;14.32;;;;;;;33.38;52.03;100633.97;4805432;29;70536;-33
2021/04/09 09:02:56;;;;;;;17.88;14.35;;;;;;;33.45;51.92;100652.03;4809207;29;65702;-33
2021/04/09 09:05:30;;;;;;;15.98;14.55;;;;;;;33.37;52.29;100632.31;4799238;29;70182;-34
2021/04/09 09:08:04;;;;;;;16.00;13.77;;;;;;;33.45;52.15;100646.59;4810049;29;65151;-34
2021/04/09 09:10:33;;;;;;;14.80;13.50;;;;;;;33.44;52.08;100642.22;4808959;29;70221;-33
2021/04/09 09:13:03;;;;;;;15.80;14.02;;;;;;;33.45;52.03;100624.84;4808144;29;65161;-33
2021/04/09 09:15:57;;;;;;;18.48;13.52;;;;;;;33.38;52.02;100636.69;4809921;29;69305;-34
2021/04/09 09:18:33;;;;;;;16.45;14.52;;;;;;;33.45;52.45;100635.72;4796682;29;65703;-33
2021/04/09 09:21:14;;;;;;;14.77;13.50;;;;;;;33.41;52.08;100620.97;4810735;29;70221;-33
2021/04/09 09:23:56;;;;;;;15.05;13.55;;;;;;;33.46;52.32;100610.16;4804876;29;64928;-33
2021/04/09 09:26:38;;;;;;;18.17;13.57;;;;;;;33.43;52.24;100613.38;4805648;29;69659;-33
2021/04/09 09:29:15;;;;;;;15.85;14.15;;;;;;;33.50;52.25;100622.22;4793772;29;65028;-34
2021/04/09 09:31:50;;;;;;;22.50;14.00;;;;;;;33.50;51.96;100617.59;4811151;29;70359;-33
2021/04/09 09:34:35;;;;;;;14.70;13.27;;;;;;;33.49;52.44;100599.63;4798233;29;64834;-33
2021/04/09 09:37:18;;;;;;;15.70;14.18;;;;;;;33.50;51.84;100595.03;4810701;29;69531;-35
2021/04/09 09:39:58;;;;;;;19.23;14.07;;;;;;;33.48;52.00;100602.59;4798528;29;65043;-33
2021/04/09 09:42:28;;;;;;;20.33;13.60;;;;;;;33.49;52.29;100615.97;4810263;29;69240;-33
2021/04/09 09:45:33;;;;;;;15.80;14.30;;;;;;;33.20;52.33;100568.91;4802298;29;66121;-34
2021/04/09 09:48:16;;;;;;;14.75;13.27;;;;;;;33.46;52.37;100610.16;4809491;29;69891;-33
2021/04/09 09:50:45;;;;;;;15.85;13.20;;;;;;;33.52;52.14;100625.53;4810240;29;66172;-33
2021/04/09 09:53:15;;;;;;;16.13;14.52;;;;;;;33.53;52.06;100630.72;4810653;29;69919;-33
2021/04/09 09:55:47;;;;;;;19.70;14.32;;;;;;;33.51;51.91;100656.47;4803339;29;66237;-34
2021/04/09 09:58:22;;;;;;;15.05;13.65;;;;;;;33.48;52.21;100656.97;4799258;29;69158;-33
2021/04/09 10:01:00;;;;;;;14.52;13.23;;;;;;;33.37;52.07;100634.19;4801731;29;65567;-33
2021/04/09 10:03:35;;;;;;;14.68;13.40;;;;;;;33.48;52.19;100646.09;4809095;29;70354;-34
2021/04/09 10:06:08;;;;;;;16.05;13.63;;;;;;;33.47;52.27;100639.03;4810621;29;64935;-33
2021/04/09 10:09:00;;;;;;;15.98;13.55;;;;;;;33.53;52.00;100648.94;4807673;29;70562;-33
2021/04/09 10:11:31;;;;;;;16.83;13.82;;;;;;;33.54;51.97;100648.72;4806041;29;66171;-34
2021/04/09 10:14:01;;;;;;;13.85;12.73;;;;;;;33.46;52.31;100643.63;4803674;29;70802;-33
2021/04/09 10:16:33;;;;;;;15.73;13.60;;;;;;;33.46;52.11;100643.63;4806508;29;66134;-34
2021/04/09 10:19:07;;;;;;;16.52;14.13;;;;;;;33.27;52.29;100618.53;4804602;29;70143;-34
2021/04/09 10:21:42;;;;;;;16.58;13.85;;;;;;;33.29;52.32;100629.16;4806597;29;65978;-33
2021/04/09 10:24:37;;;;;;;16.67;14.10;;;;;;;33.29;52.37;100632.72;4822691;29;70260;-34
2021/04/09 10:27:12;;;;;;;15.27;13.70;;;;;;;33.38;52.46;100666.59;4801811;29;66655;-34
2021/04/09 10:29:41;;;;;;;19.73;14.15;;;;;;;33.42;52.30;100666.09;4792974;29;68980;-33
2021/04/09 10:32:21;;;;;;;17.60;13.65;;;;;;;33.24;52.58;100654.38;4791506;29;65992;-33
2021/04/09 10:34:52;;;;;;;17.40;13.82;;;;;;;33.35;52.72;100669.81;4797560;29;69136;-34
2021/04/09 10:37:24;;;;;;;18.38;12.95;;;;;;;33.20;53.19;100661.34;4803820;29;67401;-34
2021/04/09 10:39:57;;;;;;;15.38;13.90;;;;;;;33.10;54.63;100689.16;4807331;29;69710;-34
2021/04/09 10:42:26;;;;;;;18.25;14.20;;;;;;;32.92;55.39;100681.94;4800235;29;66116;-34
2021/04/09 10:44:56;;;;;;;30.27;14.57;;;;;;;32.88;55.40;100688.91;4793395;29;70159;-34
2021/04/09 10:47:27;;;;;;;17.90;13.82;;;;;;;32.85;55.84;100686.69;4807317;29;66672;-34
2021/04/09 10:50:01;;;;;;;20.40;14.23;;;;;;;32.77;55.86;100689.75;4794962;29;69376;-34
2021/04/09 10:52:32;;;;;;;18.83;15.05;;;;;;;32.74;56.04;100701.09;4790776;29;65286;-34
2021/04/09 10:55:04;;;;;;;22.65;14.75;;;;;;;32.57;56.21;100676.56;4791372;29;69676;-33
2021/04/09 10:57:37;;;;;;;18.35;13.95;;;;;;;32.70;57.27;100710.78;4819214;29;65108;-34
2021/04/09 11:00:08;;;;;;;23.92;15.20;;;;;;;32.67;57.11;100716.69;4798572;29;71015;-35
2021/04/09 11:02:40;;;;;;;26.38;14.43;;;;;;;32.67;56.99;100732.97;4795671;29;66434;-35
2021/04/09 11:05:14;;;;;;;26.50;15.75;;;;;;;32.66;57.14;100740.31;4796010;29;69123;-34
2021/04/09 11:07:48;;;;;;;29.33;16.48;;;;;;;32.60;57.20;100748.59;4792367;29;66564;-35
2021/04/09 11:10:37;;;;;;;21.75;15.75;;;;;;;32.42;56.90;100736.72;4794922;29;69676;-35
2021/04/09 11:13:07;;;;;;;33.60;17.33;;;;;;;32.52;57.18;100762.50;4797352;29;66752;-34
2021/04/09 11:15:41;;;;;;;37.08;17.98;;;;;;;32.43;57.14;100770.97;4794596;29;69228;-34
2021/04/09 11:18:13;;;;;;;24.13;16.73;;;;;;;32.42;57.23;100780.16;4791221;29;66340;-34
2021/04/09 11:20:46;;;;;;;25.85;17.63;;;;;;;32.37;57.70;100782.72;4791373;29;68856;-36
2021/04/09 11:23:17;;;;;;;33.25;18.27;;;;;;;32.37;57.25;100781.91;4794343;29;66227;-35
2021/04/09 11:25:50;;;;;;;42.65;17.40;;;;;;;32.15;58.65;100763.47;4809023;29;69751;-35
2021/04/09 11:28:28;;;;;;;33.10;18.02;;;;;;;32.11;59.58;100799.44;4802057;29;66001;-37
2021/04/09 11:31:00;;;;;;;30.38;18.05;;;;;;;31.94;59.08;100783.78;4798524;29;69055;-34
2021/04/09 11:33:40;;;;;;;23.75;17.02;;;;;;;32.02;58.87;100821.44;4795368;29;65274;-34
2021/04/09 11:36:21;;;;;;;31.50;19.00;;;;;;;31.88;59.30;100828.09;4794194;29;69290;-33
2021/04/09 11:39:15;;;;;;;29.38;18.77;;;;;;;31.82;59.15;100834.44;4793020;29;65250;-34
2021/04/09 11:41:59;;;;;;;24.98;18.27;;;;;;;31.84;59.31;100821.44;4793197;29;70088;-34